sensor_id;sensor_type;location;lat;lon;timestamp;pressure;altitude;pressure_sealevel;temperature;humidity
55277;BME280;41136;51.478;-2.610;2023-04-26T00:01:33;100955.72;;;12.07;56.01
55277;BME280;41136;51.478;-2.610;2023-04-26T00:03:58;100951.41;;;12.11;56.33
55277;BME280;41136;51.478;-2.610;2023-04-26T00:06:24;100949.53;;;11.63;56.27
55277;BME280;41136;51.478;-2.610;2023-04-26T00:08:49;100950.05;;;11.83;56.77
55277;BME280;41136;51.478;-2.610;2023-04-26T00:11:15;100954.24;;;11.22;56.87
55277;BME280;41136;51.478;-2.610;2023-04-26T00:13:40;100961.74;;;11.91;56.93
55277;BME280;41136;51.478;-2.610;2023-04-26T00:16:06;100961.29;;;11.16;56.84
55277;BME280;41136;51.478;-2.610;2023-04-26T00:18:31;100960.93;;;11.16;56.61
55277;BME280;41136;51.478;-2.610;2023-04-26T00:20:57;100957.38;;;11.72;56.22
55277;BME280;41136;51.478;-2.610;2023-04-26T00:23:22;100956.74;;;11.56;56.25
55277;BME280;41136;51.478;-2.610;2023-04-26T00:25:48;100958.20;;;11.96;56.24
55277;BME280;41136;51.478;-2.610;2023-04-26T00:28:13;100958.53;;;11.86;56.11
55277;BME280;41136;51.478;-2.610;2023-04-26T00:30:38;100953.31;;;11.60;56.27
55277;BME280;41136;51.478;-2.610;2023-04-26T00:33:04;100947.21;;;12.14;55.72
55277;BME280;41136;51.478;-2.610;2023-04-26T00:35:29;100951.94;;;11.50;56.72
55277;BME280;41136;51.478;-2.610;2023-04-26T00:37:54;100954.97;;;11.12;57.17
55277;BME280;41136;51.478;-2.610;2023-04-26T00:40:20;100952.66;;;11.69;57.32
55277;BME280;41136;51.478;-2.610;2023-04-26T00:42:45;100947.21;;;11.27;57.19
55277;BME280;41136;51.478;-2.610;2023-04-26T00:45:11;100945.05;;;11.72;57.16
55277;BME280;41136;51.478;-2.610;2023-04-26T00:47:36;100945.44;;;11.87;56.91
55277;BME280;41136;51.478;-2.610;2023-04-26T00:50:01;100942.19;;;11.68;56.72
55277;BME280;41136;51.478;-2.610;2023-04-26T00:52:27;100940.52;;;11.81;56.38
55277;BME280;41136;51.478;-2.610;2023-04-26T00:58:35;100941.93;;;11.50;56.09
55277;BME280;41136;51.478;-2.610;2023-04-26T01:00:59;100939.75;;;11.33;55.31
55277;BME280;41136;51.478;-2.610;2023-04-26T01:03:25;100937.13;;;11.88;55.03
55277;BME280;41136;51.478;-2.610;2023-04-26T01:05:50;100935.91;;;11.76;54.51
55277;BME280;41136;51.478;-2.610;2023-04-26T01:08:16;100939.09;;;12.73;54.57
55277;BME280;41136;51.478;-2.610;2023-04-26T01:10:41;100942.92;;;12.03;55.58
55277;BME280;41136;51.478;-2.610;2023-04-26T01:13:06;100940.88;;;12.14;55.87
55277;BME280;41136;51.478;-2.610;2023-04-26T01:15:32;100938.67;;;11.86;56.45
55277;BME280;41136;51.478;-2.610;2023-04-26T01:17:57;100941.71;;;12.18;56.10
55277;BME280;41136;51.478;-2.610;2023-04-26T01:20:23;100937.24;;;12.22;55.99
55277;BME280;41136;51.478;-2.610;2023-04-26T01:22:48;100936.71;;;12.00;56.29
55277;BME280;41136;51.478;-2.610;2023-04-26T01:25:15;100932.04;;;11.53;56.98
55277;BME280;41136;51.478;-2.610;2023-04-26T01:27:39;100930.16;;;11.47;57.23
55277;BME280;41136;51.478;-2.610;2023-04-26T01:30:06;100928.49;;;11.71;57.18
55277;BME280;41136;51.478;-2.610;2023-04-26T01:32:30;100932.09;;;11.49;57.60
55277;BME280;41136;51.478;-2.610;2023-04-26T01:34:55;100934.43;;;11.58;57.55
55277;BME280;41136;51.478;-2.610;2023-04-26T01:37:20;100934.43;;;11.71;57.44
55277;BME280;41136;51.478;-2.610;2023-04-26T01:39:46;100930.15;;;12.17;56.61
55277;BME280;41136;51.478;-2.610;2023-04-26T01:42:11;100930.01;;;11.86;56.77
55277;BME280;41136;51.478;-2.610;2023-04-26T01:44:37;100931.11;;;11.41;57.96
55277;BME280;41136;51.478;-2.610;2023-04-26T01:47:02;100931.87;;;11.55;58.06
55277;BME280;41136;51.478;-2.610;2023-04-26T01:49:27;100930.94;;;11.51;58.04
55277;BME280;41136;51.478;-2.610;2023-04-26T01:51:52;100931.52;;;11.59;57.12
55277;BME280;41136;51.478;-2.610;2023-04-26T01:54:17;100934.42;;;11.54;57.40
55277;BME280;41136;51.478;-2.610;2023-04-26T01:56:43;100932.44;;;11.36;57.16
55277;BME280;41136;51.478;-2.610;2023-04-26T01:59:08;100931.32;;;11.44;57.22
55277;BME280;41136;51.478;-2.610;2023-04-26T02:01:34;100931.04;;;11.43;57.80
55277;BME280;41136;51.478;-2.610;2023-04-26T02:03:59;100935.33;;;11.72;57.84
55277;BME280;41136;51.478;-2.610;2023-04-26T02:06:24;100940.73;;;11.29;58.05
55277;BME280;41136;51.478;-2.610;2023-04-26T02:08:50;100943.41;;;11.65;58.23
55277;BME280;41136;51.478;-2.610;2023-04-26T02:11:15;100940.72;;;11.68;57.72
55277;BME280;41136;51.478;-2.610;2023-04-26T02:13:41;100941.35;;;11.71;57.65
55277;BME280;41136;51.478;-2.610;2023-04-26T02:16:06;100937.90;;;11.42;59.25
55277;BME280;41136;51.478;-2.610;2023-04-26T02:18:31;100935.59;;;11.21;60.94
55277;BME280;41136;51.478;-2.610;2023-04-26T02:20:57;100928.98;;;11.09;60.03
55277;BME280;41136;51.478;-2.610;2023-04-26T02:23:22;100924.23;;;11.51;59.86
55277;BME280;41136;51.478;-2.610;2023-04-26T02:25:48;100923.83;;;11.48;59.85
55277;BME280;41136;51.478;-2.610;2023-04-26T02:28:14;100930.40;;;11.44;59.74
55277;BME280;41136;51.478;-2.610;2023-04-26T02:30:38;100922.55;;;11.45;58.45
55277;BME280;41136;51.478;-2.610;2023-04-26T02:33:03;100919.94;;;11.44;58.64
55277;BME280;41136;51.478;-2.610;2023-04-26T02:35:29;100913.38;;;11.37;58.79
55277;BME280;41136;51.478;-2.610;2023-04-26T02:37:54;100910.27;;;10.50;60.19
55277;BME280;41136;51.478;-2.610;2023-04-26T02:40:20;100903.41;;;11.21;59.01
55277;BME280;41136;51.478;-2.610;2023-04-26T02:42:45;100902.35;;;11.10;59.95
55277;BME280;41136;51.478;-2.610;2023-04-26T02:45:10;100904.43;;;11.28;59.35
55277;BME280;41136;51.478;-2.610;2023-04-26T02:47:36;100909.53;;;11.07;59.06
55277;BME280;41136;51.478;-2.610;2023-04-26T02:50:01;100908.79;;;10.76;59.81
55277;BME280;41136;51.478;-2.610;2023-04-26T02:52:26;100908.03;;;11.04;59.77
55277;BME280;41136;51.478;-2.610;2023-04-26T02:54:52;100901.40;;;10.84;59.96
55277;BME280;41136;51.478;-2.610;2023-04-26T02:57:17;100904.39;;;11.07;59.13
55277;BME280;41136;51.478;-2.610;2023-04-26T02:59:42;100903.40;;;11.11;59.41
55277;BME280;41136;51.478;-2.610;2023-04-26T03:02:08;100901.86;;;10.73;60.04
55277;BME280;41136;51.478;-2.610;2023-04-26T03:04:34;100901.59;;;10.88;60.41
55277;BME280;41136;51.478;-2.610;2023-04-26T03:06:59;100899.36;;;10.51;60.69
55277;BME280;41136;51.478;-2.610;2023-04-26T03:09:25;100898.37;;;10.92;61.03
55277;BME280;41136;51.478;-2.610;2023-04-26T03:11:51;100894.10;;;10.49;61.02
55277;BME280;41136;51.478;-2.610;2023-04-26T03:14:15;100891.82;;;10.87;60.65
55277;BME280;41136;51.478;-2.610;2023-04-26T03:16:42;100891.56;;;10.35;60.75
55277;BME280;41136;51.478;-2.610;2023-04-26T03:19:06;100882.63;;;10.70;60.60
55277;BME280;41136;51.478;-2.610;2023-04-26T03:21:32;100877.66;;;10.35;61.36
55277;BME280;41136;51.478;-2.610;2023-04-26T03:23:57;100873.56;;;10.53;61.10
55277;BME280;41136;51.478;-2.610;2023-04-26T03:26:22;100870.20;;;10.71;61.27
55277;BME280;41136;51.478;-2.610;2023-04-26T03:28:48;100864.28;;;10.37;61.50
55277;BME280;41136;51.478;-2.610;2023-04-26T03:31:13;100860.52;;;10.76;62.18
55277;BME280;41136;51.478;-2.610;2023-04-26T03:33:39;100859.78;;;10.30;62.89
55277;BME280;41136;51.478;-2.610;2023-04-26T03:36:04;100856.26;;;10.08;63.79
55277;BME280;41136;51.478;-2.610;2023-04-26T03:38:29;100853.49;;;10.16;64.16
55277;BME280;41136;51.478;-2.610;2023-04-26T03:40:55;100851.91;;;10.10;64.88
55277;BME280;41136;51.478;-2.610;2023-04-26T03:43:20;100852.35;;;10.06;64.80
55277;BME280;41136;51.478;-2.610;2023-04-26T03:45:46;100852.10;;;10.17;64.78
55277;BME280;41136;51.478;-2.610;2023-04-26T03:48:11;100852.51;;;9.95;65.66
55277;BME280;41136;51.478;-2.610;2023-04-26T03:50:36;100850.53;;;9.91;66.39
55277;BME280;41136;51.478;-2.610;2023-04-26T03:53:02;100848.90;;;10.24;66.67
55277;BME280;41136;51.478;-2.610;2023-04-26T03:55:27;100849.27;;;10.29;66.19
55277;BME280;41136;51.478;-2.610;2023-04-26T03:57:53;100846.80;;;10.13;66.32
55277;BME280;41136;51.478;-2.610;2023-04-26T04:00:18;100843.09;;;10.05;67.13
55277;BME280;41136;51.478;-2.610;2023-04-26T04:02:45;100838.23;;;10.22;67.33
55277;BME280;41136;51.478;-2.610;2023-04-26T04:05:09;100838.98;;;10.32;67.03
55277;BME280;41136;51.478;-2.610;2023-04-26T04:07:34;100834.88;;;10.44;67.18
55277;BME280;41136;51.478;-2.610;2023-04-26T04:10:00;100833.86;;;9.76;68.17
55277;BME280;41136;51.478;-2.610;2023-04-26T04:12:25;100831.40;;;9.90;68.68
55277;BME280;41136;51.478;-2.610;2023-04-26T04:14:51;100826.60;;;9.77;68.59
55277;BME280;41136;51.478;-2.610;2023-04-26T04:17:16;100830.69;;;9.88;69.36
55277;BME280;41136;51.478;-2.610;2023-04-26T04:19:41;100823.63;;;9.83;69.48
55277;BME280;41136;51.478;-2.610;2023-04-26T04:22:07;100819.90;;;9.94;69.89
55277;BME280;41136;51.478;-2.610;2023-04-26T04:24:32;100816.07;;;9.28;70.33
55277;BME280;41136;51.478;-2.610;2023-04-26T04:26:58;100814.57;;;9.03;71.27
55277;BME280;41136;51.478;-2.610;2023-04-26T04:29:23;100811.79;;;9.30;72.92
55277;BME280;41136;51.478;-2.610;2023-04-26T04:31:49;100806.84;;;9.74;73.21
55277;BME280;41136;51.478;-2.610;2023-04-26T04:34:15;100807.90;;;9.50;73.21
55277;BME280;41136;51.478;-2.610;2023-04-26T04:36:39;100810.27;;;9.31;73.69
55277;BME280;41136;51.478;-2.610;2023-04-26T04:39:05;100808.44;;;9.51;73.62
55277;BME280;41136;51.478;-2.610;2023-04-26T04:45:13;100815.61;;;9.21;69.93
55277;BME280;41136;51.478;-2.610;2023-04-26T04:50:36;100815.41;;;9.86;66.92
55277;BME280;41136;51.478;-2.610;2023-04-26T04:53:02;100813.84;;;10.01;66.48
55277;BME280;41136;51.478;-2.610;2023-04-26T04:55:27;100811.83;;;9.80;66.17
55277;BME280;41136;51.478;-2.610;2023-04-26T04:57:52;100815.12;;;9.65;66.57
55277;BME280;41136;51.478;-2.610;2023-04-26T05:00:18;100815.41;;;10.42;67.27
55277;BME280;41136;51.478;-2.610;2023-04-26T05:02:43;100818.25;;;10.07;68.93
55277;BME280;41136;51.478;-2.610;2023-04-26T05:05:09;100824.15;;;9.95;69.78
55277;BME280;41136;51.478;-2.610;2023-04-26T05:07:33;100826.25;;;9.72;70.85
55277;BME280;41136;51.478;-2.610;2023-04-26T05:09:59;100825.52;;;9.67;71.92
55277;BME280;41136;51.478;-2.610;2023-04-26T05:12:24;100825.07;;;9.20;72.92
55277;BME280;41136;51.478;-2.610;2023-04-26T05:14:50;100828.21;;;9.82;73.50
55277;BME280;41136;51.478;-2.610;2023-04-26T05:17:16;100827.44;;;9.72;74.15
55277;BME280;41136;51.478;-2.610;2023-04-26T05:19:41;100827.22;;;9.23;74.85
55277;BME280;41136;51.478;-2.610;2023-04-26T05:22:06;100827.26;;;9.45;75.59
55277;BME280;41136;51.478;-2.610;2023-04-26T05:24:32;100822.38;;;9.40;75.38
55277;BME280;41136;51.478;-2.610;2023-04-26T05:26:57;100821.60;;;9.75;75.34
55277;BME280;41136;51.478;-2.610;2023-04-26T05:29:23;100820.88;;;9.02;75.74
55277;BME280;41136;51.478;-2.610;2023-04-26T05:31:48;100817.69;;;9.34;76.51
55277;BME280;41136;51.478;-2.610;2023-04-26T05:34:14;100817.74;;;9.77;76.59
55277;BME280;41136;51.478;-2.610;2023-04-26T05:36:40;100819.23;;;9.42;76.37
55277;BME280;41136;51.478;-2.610;2023-04-26T05:39:05;100814.12;;;9.59;76.88
55277;BME280;41136;51.478;-2.610;2023-04-26T05:41:30;100808.96;;;9.71;77.73
55277;BME280;41136;51.478;-2.610;2023-04-26T05:43:55;100808.30;;;9.74;77.59
55277;BME280;41136;51.478;-2.610;2023-04-26T05:46:21;100816.97;;;9.48;78.39
55277;BME280;41136;51.478;-2.610;2023-04-26T05:48:46;100816.13;;;9.29;79.96
55277;BME280;41136;51.478;-2.610;2023-04-26T05:51:12;100820.83;;;8.69;80.44
55277;BME280;41136;51.478;-2.610;2023-04-26T05:53:37;100822.95;;;9.03;82.22
55277;BME280;41136;51.478;-2.610;2023-04-26T05:56:03;100820.51;;;9.50;81.34
55277;BME280;41136;51.478;-2.610;2023-04-26T05:58:28;100821.76;;;9.64;80.15
55277;BME280;41136;51.478;-2.610;2023-04-26T06:00:54;100820.54;;;9.35;80.22
55277;BME280;41136;51.478;-2.610;2023-04-26T06:03:19;100817.54;;;8.88;81.06
55277;BME280;41136;51.478;-2.610;2023-04-26T06:05:45;100818.13;;;9.13;80.60
55277;BME280;41136;51.478;-2.610;2023-04-26T06:08:10;100821.74;;;9.84;79.87
55277;BME280;41136;51.478;-2.610;2023-04-26T06:10:35;100824.38;;;9.01;80.76
55277;BME280;41136;51.478;-2.610;2023-04-26T06:13:01;100824.43;;;9.46;81.84
55277;BME280;41136;51.478;-2.610;2023-04-26T06:15:26;100827.36;;;9.41;82.34
55277;BME280;41136;51.478;-2.610;2023-04-26T06:17:52;100821.70;;;9.45;82.75
55277;BME280;41136;51.478;-2.610;2023-04-26T06:20:18;100821.34;;;9.11;83.83
55277;BME280;41136;51.478;-2.610;2023-04-26T06:22:43;100822.36;;;9.23;84.87
55277;BME280;41136;51.478;-2.610;2023-04-26T06:25:09;100820.52;;;8.92;86.07
55277;BME280;41136;51.478;-2.610;2023-04-26T06:27:33;100820.12;;;9.12;87.88
55277;BME280;41136;51.478;-2.610;2023-04-26T06:29:59;100816.48;;;8.75;89.27
55277;BME280;41136;51.478;-2.610;2023-04-26T06:32:25;100814.29;;;8.64;89.92
55277;BME280;41136;51.478;-2.610;2023-04-26T06:34:50;100813.04;;;8.85;89.99
55277;BME280;41136;51.478;-2.610;2023-04-26T06:37:16;100814.19;;;8.86;90.79
55277;BME280;41136;51.478;-2.610;2023-04-26T06:39:41;100812.71;;;8.01;92.59
55277;BME280;41136;51.478;-2.610;2023-04-26T06:42:06;100810.75;;;8.23;94.70
55277;BME280;41136;51.478;-2.610;2023-04-26T06:44:31;100812.45;;;8.23;95.74
55277;BME280;41136;51.478;-2.610;2023-04-26T06:46:57;100818.54;;;8.09;96.27
55277;BME280;41136;51.478;-2.610;2023-04-26T06:49:23;100820.50;;;8.60;96.36
55277;BME280;41136;51.478;-2.610;2023-04-26T06:51:47;100814.65;;;8.38;97.05
55277;BME280;41136;51.478;-2.610;2023-04-26T06:54:13;100816.75;;;8.60;96.33
55277;BME280;41136;51.478;-2.610;2023-04-26T06:56:38;100818.16;;;8.97;96.31
55277;BME280;41136;51.478;-2.610;2023-04-26T06:59:05;100819.39;;;9.11;94.99
55277;BME280;41136;51.478;-2.610;2023-04-26T07:01:30;100822.35;;;9.08;93.55
55277;BME280;41136;51.478;-2.610;2023-04-26T07:03:55;100821.66;;;9.17;93.44
55277;BME280;41136;51.478;-2.610;2023-04-26T07:06:20;100820.93;;;9.51;92.77
55277;BME280;41136;51.478;-2.610;2023-04-26T07:08:46;100823.06;;;9.55;92.25
55277;BME280;41136;51.478;-2.610;2023-04-26T07:11:12;100824.89;;;9.23;92.11
55277;BME280;41136;51.478;-2.610;2023-04-26T07:13:37;100827.17;;;9.21;92.57
55277;BME280;41136;51.478;-2.610;2023-04-26T07:16:02;100829.08;;;9.01;92.77
55277;BME280;41136;51.478;-2.610;2023-04-26T07:18:27;100827.93;;;9.55;92.44
55277;BME280;41136;51.478;-2.610;2023-04-26T07:20:53;100830.70;;;9.03;92.96
55277;BME280;41136;51.478;-2.610;2023-04-26T07:23:18;100832.49;;;8.84;94.04
55277;BME280;41136;51.478;-2.610;2023-04-26T07:25:43;100833.68;;;8.82;94.43
55277;BME280;41136;51.478;-2.610;2023-04-26T07:28:09;100834.65;;;9.00;93.09
55277;BME280;41136;51.478;-2.610;2023-04-26T07:30:34;100835.82;;;8.96;92.02
55277;BME280;41136;51.478;-2.610;2023-04-26T07:33:00;100835.76;;;9.39;91.52
55277;BME280;41136;51.478;-2.610;2023-04-26T07:35:25;100839.23;;;9.21;91.76
55277;BME280;41136;51.478;-2.610;2023-04-26T07:37:50;100838.56;;;9.97;90.29
55277;BME280;41136;51.478;-2.610;2023-04-26T07:40:16;100840.55;;;10.04;89.28
55277;BME280;41136;51.478;-2.610;2023-04-26T07:42:41;100830.01;;;10.19;88.07
55277;BME280;41136;51.478;-2.610;2023-04-26T07:45:08;100828.59;;;10.56;86.87
55277;BME280;41136;51.478;-2.610;2023-04-26T07:47:32;100829.58;;;10.25;86.39
55277;BME280;41136;51.478;-2.610;2023-04-26T07:49:57;100829.62;;;9.64;87.19
55277;BME280;41136;51.478;-2.610;2023-04-26T07:52:23;100826.55;;;9.64;88.54
55277;BME280;41136;51.478;-2.610;2023-04-26T07:54:48;100822.72;;;10.20;87.22
55277;BME280;41136;51.478;-2.610;2023-04-26T07:57:13;100822.82;;;9.81;87.04
55277;BME280;41136;51.478;-2.610;2023-04-26T07:59:39;100821.46;;;9.87;88.22
55277;BME280;41136;51.478;-2.610;2023-04-26T08:02:04;100819.27;;;10.18;88.83
55277;BME280;41136;51.478;-2.610;2023-04-26T08:04:31;100824.59;;;10.12;89.38
55277;BME280;41136;51.478;-2.610;2023-04-26T08:06:55;100822.37;;;10.21;89.45
55277;BME280;41136;51.478;-2.610;2023-04-26T08:09:20;100826.42;;;10.19;89.40
55277;BME280;41136;51.478;-2.610;2023-04-26T08:11:46;100826.38;;;10.94;87.92
55277;BME280;41136;51.478;-2.610;2023-04-26T08:14:11;100829.08;;;11.18;86.60
55277;BME280;41136;51.478;-2.610;2023-04-26T08:16:36;100826.49;;;10.93;87.38
55277;BME280;41136;51.478;-2.610;2023-04-26T08:19:02;100825.92;;;11.27;86.84
55277;BME280;41136;51.478;-2.610;2023-04-26T08:21:27;100831.00;;;11.27;86.80
55277;BME280;41136;51.478;-2.610;2023-04-26T08:23:53;100838.12;;;11.13;86.74
55277;BME280;41136;51.478;-2.610;2023-04-26T08:26:18;100834.49;;;10.75;86.22
55277;BME280;41136;51.478;-2.610;2023-04-26T08:28:44;100832.22;;;11.51;88.38
55277;BME280;41136;51.478;-2.610;2023-04-26T08:33:34;100822.59;;;11.29;86.36
55277;BME280;41136;51.478;-2.610;2023-04-26T08:36:00;100825.82;;;11.52;85.86
55277;BME280;41136;51.478;-2.610;2023-04-26T08:38:25;100817.56;;;11.50;84.98
55277;BME280;41136;51.478;-2.610;2023-04-26T08:40:51;100813.31;;;11.45;85.02
55277;BME280;41136;51.478;-2.610;2023-04-26T08:43:15;100811.96;;;11.17;86.24
55277;BME280;41136;51.478;-2.610;2023-04-26T08:45:44;100812.78;;;11.42;86.40
55277;BME280;41136;51.478;-2.610;2023-04-26T08:48:10;100820.25;;;11.80;85.70
55277;BME280;41136;51.478;-2.610;2023-04-26T08:50:32;100817.44;;;12.08;84.69
55277;BME280;41136;51.478;-2.610;2023-04-26T08:52:57;100819.57;;;12.32;83.34
55277;BME280;41136;51.478;-2.610;2023-04-26T08:55:23;100820.87;;;11.03;84.17
55277;BME280;41136;51.478;-2.610;2023-04-26T08:57:48;100818.58;;;11.19;85.47
55277;BME280;41136;51.478;-2.610;2023-04-26T09:00:19;100816.76;;;11.50;86.89
55277;BME280;41136;51.478;-2.610;2023-04-26T09:02:40;100821.38;;;11.01;89.13
55277;BME280;41136;51.478;-2.610;2023-04-26T09:05:06;100817.12;;;11.49;89.49
55277;BME280;41136;51.478;-2.610;2023-04-26T09:07:31;100823.45;;;11.33;88.50
55277;BME280;41136;51.478;-2.610;2023-04-26T09:09:57;100820.54;;;11.20;87.67
55277;BME280;41136;51.478;-2.610;2023-04-26T09:12:20;100814.16;;;11.72;88.06
55277;BME280;41136;51.478;-2.610;2023-04-26T09:14:46;100818.99;;;11.80;87.02
55277;BME280;41136;51.478;-2.610;2023-04-26T09:19:38;100811.71;;;11.96;85.62
55277;BME280;41136;51.478;-2.610;2023-04-26T09:22:02;100815.56;;;11.95;85.89
55277;BME280;41136;51.478;-2.610;2023-04-26T09:24:27;100813.92;;;11.88;86.72
55277;BME280;41136;51.478;-2.610;2023-04-26T09:27:00;100817.16;;;11.81;86.96
55277;BME280;41136;51.478;-2.610;2023-04-26T09:29:18;100817.11;;;11.66;88.22
55277;BME280;41136;51.478;-2.610;2023-04-26T09:31:45;100809.99;;;12.15;88.47
55277;BME280;41136;51.478;-2.610;2023-04-26T09:34:09;100811.56;;;12.31;86.35
55277;BME280;41136;51.478;-2.610;2023-04-26T09:36:45;100816.38;;;12.56;84.80
55277;BME280;41136;51.478;-2.610;2023-04-26T09:38:59;100816.47;;;12.61;84.45
55277;BME280;41136;51.478;-2.610;2023-04-26T09:43:51;100809.30;;;12.89;83.79
55277;BME280;41136;51.478;-2.610;2023-04-26T09:46:21;100809.29;;;13.32;82.66
55277;BME280;41136;51.478;-2.610;2023-04-26T09:48:40;100806.20;;;13.53;82.82
55277;BME280;41136;51.478;-2.610;2023-04-26T09:51:09;100808.51;;;13.21;81.69
55277;BME280;41136;51.478;-2.610;2023-04-26T09:53:33;100811.34;;;13.62;78.91
55277;BME280;41136;51.478;-2.610;2023-04-26T09:56:06;100811.73;;;13.89;78.43
55277;BME280;41136;51.478;-2.610;2023-04-26T09:58:22;100812.60;;;13.69;79.22
55277;BME280;41136;51.478;-2.610;2023-04-26T10:00:49;100815.81;;;13.38;78.41
55277;BME280;41136;51.478;-2.610;2023-04-26T10:03:13;100810.39;;;13.64;78.98
55277;BME280;41136;51.478;-2.610;2023-04-26T10:05:38;100812.48;;;13.57;78.31
55277;BME280;41136;51.478;-2.610;2023-04-26T10:08:05;100816.06;;;13.59;80.97
55277;BME280;41136;51.478;-2.610;2023-04-26T10:10:30;100816.85;;;13.36;80.56
55277;BME280;41136;51.478;-2.610;2023-04-26T10:12:54;100816.66;;;12.93;81.88
55277;BME280;41136;51.478;-2.610;2023-04-26T10:15:20;100815.86;;;13.83;79.69
55277;BME280;41136;51.478;-2.610;2023-04-26T10:17:45;100817.59;;;13.54;80.98
55277;BME280;41136;51.478;-2.610;2023-04-26T10:20:12;100817.64;;;13.28;79.99
55277;BME280;41136;51.478;-2.610;2023-04-26T10:22:44;100814.94;;;13.73;79.81
55277;BME280;41136;51.478;-2.610;2023-04-26T10:25:01;100815.24;;;13.62;79.57
55277;BME280;41136;51.478;-2.610;2023-04-26T10:32:17;100802.63;;;13.56;78.61
55277;BME280;41136;51.478;-2.610;2023-04-26T10:34:42;100803.19;;;13.48;80.44
55277;BME280;41136;51.478;-2.610;2023-04-26T10:37:09;100805.11;;;13.84;80.87
55277;BME280;41136;51.478;-2.610;2023-04-26T10:39:32;100801.75;;;13.40;80.95
55277;BME280;41136;51.478;-2.610;2023-04-26T10:46:50;100789.92;;;13.73;80.64
55277;BME280;41136;51.478;-2.610;2023-04-26T10:49:15;100786.93;;;13.47;81.13
55277;BME280;41136;51.478;-2.610;2023-04-26T10:51:39;100785.28;;;13.54;80.48
55277;BME280;41136;51.478;-2.610;2023-04-26T10:54:06;100787.15;;;14.07;80.30
55277;BME280;41136;51.478;-2.610;2023-04-26T11:01:29;100787.34;;;13.46;80.94
55277;BME280;41136;51.478;-2.610;2023-04-26T11:04:05;100786.07;;;13.39;82.04
55277;BME280;41136;51.478;-2.610;2023-04-26T11:06:16;100785.88;;;13.49;80.26
55277;BME280;41136;51.478;-2.610;2023-04-26T11:08:36;100779.52;;;13.69;81.30
55277;BME280;41136;51.478;-2.610;2023-04-26T11:11:06;100776.61;;;13.55;81.65
55277;BME280;41136;51.478;-2.610;2023-04-26T11:13:28;100779.05;;;14.07;81.93
55277;BME280;41136;51.478;-2.610;2023-04-26T11:15:52;100782.11;;;13.83;82.18
55277;BME280;41136;51.478;-2.610;2023-04-26T11:18:18;100784.11;;;13.76;82.35
55277;BME280;41136;51.478;-2.610;2023-04-26T11:20:43;100784.95;;;14.55;80.43
55277;BME280;41136;51.478;-2.610;2023-04-26T11:23:07;100778.41;;;14.11;79.08
55277;BME280;41136;51.478;-2.610;2023-04-26T11:25:32;100777.14;;;14.84;78.41
55277;BME280;41136;51.478;-2.610;2023-04-26T11:27:59;100775.57;;;14.72;75.38
55277;BME280;41136;51.478;-2.610;2023-04-26T11:30:23;100772.50;;;14.62;77.12
55277;BME280;41136;51.478;-2.610;2023-04-26T11:32:48;100771.93;;;14.92;76.94
55277;BME280;41136;51.478;-2.610;2023-04-26T11:35:14;100775.66;;;14.63;76.00
55277;BME280;41136;51.478;-2.610;2023-04-26T11:37:39;100777.41;;;14.47;75.65
55277;BME280;41136;51.478;-2.610;2023-04-26T11:40:05;100773.52;;;14.31;77.12
55277;BME280;41136;51.478;-2.610;2023-04-26T11:42:30;100772.24;;;14.79;76.81
55277;BME280;41136;51.478;-2.610;2023-04-26T11:44:56;100766.27;;;14.70;75.35
55277;BME280;41136;51.478;-2.610;2023-04-26T11:47:20;100763.66;;;14.80;74.91
55277;BME280;41136;51.478;-2.610;2023-04-26T11:49:47;100768.95;;;14.11;75.34
55277;BME280;41136;51.478;-2.610;2023-04-26T11:52:11;100767.77;;;14.41;76.97
55277;BME280;41136;51.478;-2.610;2023-04-26T11:54:36;100770.38;;;14.32;78.86
55277;BME280;41136;51.478;-2.610;2023-04-26T11:59:27;100769.75;;;14.89;76.08
55277;BME280;41136;51.478;-2.610;2023-04-26T12:01:51;100770.67;;;14.76;76.30
55277;BME280;41136;51.478;-2.610;2023-04-26T12:04:16;100769.36;;;14.36;77.34
55277;BME280;41136;51.478;-2.610;2023-04-26T12:06:43;100765.56;;;14.36;75.88
55277;BME280;41136;51.478;-2.610;2023-04-26T12:09:07;100762.93;;;14.75;77.54
55277;BME280;41136;51.478;-2.610;2023-04-26T12:11:32;100762.11;;;14.92;77.19
55277;BME280;41136;51.478;-2.610;2023-04-26T12:13:58;100765.19;;;15.08;75.54
55277;BME280;41136;51.478;-2.610;2023-04-26T12:16:23;100761.91;;;15.10;76.87
55277;BME280;41136;51.478;-2.610;2023-04-26T12:18:49;100761.57;;;14.80;76.50
55277;BME280;41136;51.478;-2.610;2023-04-26T12:21:14;100761.14;;;15.18;76.32
55277;BME280;41136;51.478;-2.610;2023-04-26T12:23:39;100765.67;;;15.12;77.65
55277;BME280;41136;51.478;-2.610;2023-04-26T12:26:05;100767.03;;;15.16;75.86
55277;BME280;41136;51.478;-2.610;2023-04-26T12:28:30;100764.90;;;14.92;75.97
55277;BME280;41136;51.478;-2.610;2023-04-26T12:30:55;100765.65;;;15.02;75.73
55277;BME280;41136;51.478;-2.610;2023-04-26T12:33:20;100765.41;;;15.18;75.82
55277;BME280;41136;51.478;-2.610;2023-04-26T12:35:46;100764.26;;;15.44;76.07
55277;BME280;41136;51.478;-2.610;2023-04-26T12:38:11;100759.00;;;15.19;76.43
55277;BME280;41136;51.478;-2.610;2023-04-26T12:40:36;100756.37;;;15.20;76.09
55277;BME280;41136;51.478;-2.610;2023-04-26T12:43:01;100761.35;;;14.73;76.56
55277;BME280;41136;51.478;-2.610;2023-04-26T12:45:26;100759.88;;;14.94;76.79
55277;BME280;41136;51.478;-2.610;2023-04-26T12:47:52;100761.12;;;14.52;77.78
55277;BME280;41136;51.478;-2.610;2023-04-26T12:50:17;100760.24;;;15.10;79.22
55277;BME280;41136;51.478;-2.610;2023-04-26T12:52:44;100753.38;;;14.38;79.67
55277;BME280;41136;51.478;-2.610;2023-04-26T12:55:08;100756.43;;;14.53;79.71
55277;BME280;41136;51.478;-2.610;2023-04-26T12:57:33;100757.35;;;14.99;78.48
55277;BME280;41136;51.478;-2.610;2023-04-26T12:59:57;100755.13;;;14.55;78.52
55277;BME280;41136;51.478;-2.610;2023-04-26T13:02:23;100747.26;;;15.15;78.08
55277;BME280;41136;51.478;-2.610;2023-04-26T13:04:48;100745.41;;;15.06;77.23
55277;BME280;41136;51.478;-2.610;2023-04-26T13:07:14;100750.85;;;15.52;76.70